createdAt,value
2022-11-26T00:04:53.747Z,3.30
2022-11-26T00:09:58.312Z,3.30
2022-11-26T00:15:17.005Z,3.30
2022-11-26T00:20:25.146Z,3.40
2022-11-26T00:26:03.704Z,3.40
2022-11-26T00:31:14.402Z,3.50
2022-11-26T00:36:31.303Z,3.50
2022-11-26T00:41:39.100Z,3.50
2022-11-26T00:46:42.117Z,3.50
2022-11-26T00:51:46.451Z,3.40
2022-11-26T00:56:50.747Z,3.50
2022-11-26T01:01:54.083Z,3.50
2022-11-26T01:06:56.875Z,3.50
2022-11-26T01:11:59.776Z,3.60
2022-11-26T01:17:02.758Z,3.60
2022-11-26T01:22:05.739Z,3.60
2022-11-26T01:27:12.106Z,3.60
2022-11-26T01:32:15.268Z,3.50
2022-11-26T01:37:18.110Z,3.50
2022-11-26T01:42:45.316Z,3.40
2022-11-26T01:47:48.684Z,3.40
2022-11-26T01:52:52.555Z,3.40
2022-11-26T01:57:55.497Z,3.40
2022-11-26T02:02:58.450Z,3.40
2022-11-26T02:08:02.290Z,3.40
2022-11-26T02:13:05.883Z,3.50
2022-11-26T02:18:09.927Z,3.50
2022-11-26T02:24:06.405Z,3.40
2022-11-26T02:29:15.106Z,3.40
2022-11-26T02:34:34.371Z,3.40
2022-11-26T02:39:40.367Z,3.40
2022-11-26T02:44:45.494Z,3.40
2022-11-26T02:49:50.448Z,3.40
2022-11-26T02:54:54.661Z,3.50
2022-11-26T02:59:58.246Z,3.50
2022-11-26T03:05:03.852Z,3.50
2022-11-26T03:10:07.817Z,3.50
2022-11-26T03:15:11.547Z,3.50
2022-11-26T03:20:16.234Z,3.40
2022-11-26T03:25:19.445Z,3.40
2022-11-26T03:30:22.905Z,3.40
2022-11-26T03:35:25.913Z,3.40
2022-11-26T03:40:28.833Z,3.40
2022-11-26T03:45:31.759Z,3.30
2022-11-26T03:50:34.680Z,3.30
2022-11-26T03:55:37.583Z,3.30
2022-11-26T04:00:40.496Z,3.30
2022-11-26T04:05:43.381Z,3.20
2022-11-26T04:10:46.248Z,3.10
2022-11-26T04:15:49.517Z,3.10
2022-11-26T04:20:53.496Z,3.10
2022-11-26T04:25:56.520Z,3.10
2022-11-26T04:30:59.462Z,3.00
2022-11-26T04:36:02.404Z,3.00
2022-11-26T04:41:05.731Z,3.00
2022-11-26T04:46:08.710Z,3.00
2022-11-26T04:51:11.610Z,3.00
2022-11-26T04:56:14.712Z,3.00
2022-11-26T05:01:17.687Z,3.00
2022-11-26T05:06:21.109Z,3.10
2022-11-26T05:11:24.151Z,3.10
2022-11-26T05:16:27.166Z,3.10
2022-11-26T05:21:30.192Z,3.10
2022-11-26T05:26:33.060Z,3.00
2022-11-26T05:31:36.108Z,2.80
2022-11-26T05:36:38.945Z,2.70
2022-11-26T05:41:41.946Z,2.60
2022-11-26T05:46:44.858Z,2.50
2022-11-26T05:51:47.791Z,2.60
2022-11-26T05:56:53.125Z,2.60
2022-11-26T06:01:59.977Z,2.60
2022-11-26T06:07:02.850Z,2.60
2022-11-26T06:12:07.242Z,2.60
2022-11-26T06:17:10.652Z,2.60
2022-11-26T06:22:13.701Z,2.60
2022-11-26T06:27:16.568Z,2.60
2022-11-26T06:32:20.109Z,2.60
2022-11-26T06:37:23.023Z,2.60
2022-11-26T06:42:26.129Z,2.60
2022-11-26T06:47:28.926Z,2.60
2022-11-26T06:52:31.619Z,2.60
2022-11-26T06:57:34.597Z,2.70
2022-11-26T07:02:38.510Z,2.70
2022-11-26T07:07:42.083Z,2.70
2022-11-26T07:12:45.080Z,2.70
2022-11-26T07:17:47.763Z,2.60
2022-11-26T07:22:50.779Z,2.50
2022-11-26T07:27:53.658Z,2.40
2022-11-26T07:32:56.629Z,2.40
2022-11-26T07:37:59.870Z,2.50
2022-11-26T07:43:02.916Z,2.60
2022-11-26T07:48:06.083Z,2.60
2022-11-26T07:53:08.779Z,2.80
2022-11-26T07:58:11.788Z,2.90
2022-11-26T08:03:14.801Z,3.10
2022-11-26T08:08:17.817Z,3.40
2022-11-26T08:13:20.784Z,3.70
2022-11-26T08:18:23.850Z,3.90
2022-11-26T08:23:28.450Z,4.00
2022-11-26T08:28:31.322Z,4.10
2022-11-26T08:33:35.350Z,4.20
2022-11-26T08:38:38.987Z,4.40
2022-11-26T08:44:05.545Z,4.50
2022-11-26T08:49:06.287Z,4.70
2022-11-26T08:54:10.147Z,4.70
2022-11-26T08:59:13.064Z,4.80
2022-11-26T09:04:16.387Z,4.90
2022-11-26T09:09:19.750Z,5.10
2022-11-26T09:14:26.316Z,5.30
2022-11-26T09:19:29.371Z,5.40
2022-11-26T09:24:32.313Z,5.50
2022-11-26T09:29:35.134Z,5.50
2022-11-26T09:34:38.532Z,5.60
2022-11-26T09:39:42.938Z,5.60
2022-11-26T09:45:01.753Z,5.60
2022-11-26T09:50:13.896Z,5.60
2022-11-26T09:55:26.210Z,5.70
2022-11-26T10:00:37.507Z,5.90
2022-11-26T10:05:52.455Z,6.00
2022-11-26T10:11:38.806Z,6.10
2022-11-26T10:16:50.734Z,6.20
2022-11-26T10:22:00.636Z,6.40
2022-11-26T10:27:26.835Z,6.60
2022-11-26T10:32:42.525Z,6.70
2022-11-26T10:37:46.026Z,6.90
2022-11-26T10:43:21.593Z,7.00
2022-11-26T10:48:29.284Z,7.10
2022-11-26T10:53:49.428Z,7.30
2022-11-26T10:58:54.270Z,7.40
2022-11-26T11:04:13.881Z,7.50
2022-11-26T11:09:31.857Z,7.60
2022-11-26T11:14:41.111Z,7.70
2022-11-26T11:19:45.500Z,7.80
2022-11-26T11:24:49.192Z,7.90
2022-11-26T11:29:52.523Z,8.00
2022-11-26T11:34:55.438Z,8.10
2022-11-26T11:40:17.026Z,8.30
2022-11-26T11:45:42.823Z,8.30
2022-11-26T11:51:15.125Z,8.30
2022-11-26T11:56:26.816Z,8.30
2022-11-26T12:02:17.987Z,8.50
2022-11-26T12:07:37.596Z,8.60
2022-11-26T12:12:52.515Z,8.90
2022-11-26T12:18:31.588Z,9.10
2022-11-26T12:23:48.969Z,9.20
2022-11-26T12:29:13.206Z,9.20
2022-11-26T12:34:39.286Z,9.30
2022-11-26T12:40:06.406Z,9.30
2022-11-26T12:45:19.936Z,9.30
2022-11-26T12:51:03.116Z,9.30
2022-11-26T12:56:41.864Z,9.30
2022-11-26T13:01:44.757Z,9.20
2022-11-26T13:06:53.913Z,9.20
2022-11-26T13:12:18.334Z,9.20
2022-11-26T13:17:38.002Z,9.10
2022-11-26T13:23:24.185Z,9.00
2022-11-26T13:28:54.491Z,8.90
2022-11-26T13:34:03.079Z,8.80
2022-11-26T13:39:49.102Z,8.70
2022-11-26T13:45:14.412Z,8.60
2022-11-26T13:50:43.431Z,8.50
2022-11-26T13:55:52.548Z,8.50
2022-11-26T14:00:56.600Z,8.40
2022-11-26T14:06:03.632Z,8.40
2022-11-26T14:11:11.037Z,8.40
2022-11-26T14:16:13.978Z,8.30
2022-11-26T14:21:19.363Z,8.30
2022-11-26T14:26:40.076Z,8.20
2022-11-26T14:31:54.644Z,8.00
2022-11-26T14:37:00.795Z,7.90
2022-11-26T14:42:06.341Z,7.80
2022-11-26T14:47:20.832Z,7.70
2022-11-26T14:52:34.562Z,7.60
2022-11-26T14:58:13.483Z,7.50
2022-11-26T15:03:24.608Z,7.40
2022-11-26T15:08:27.766Z,7.30
2022-11-26T15:13:43.034Z,7.10
2022-11-26T15:18:46.508Z,7.00
2022-11-26T15:23:52.258Z,6.80
2022-11-26T15:28:55.238Z,6.60
2022-11-26T15:33:58.704Z,6.40
2022-11-26T15:39:08.012Z,6.30
2022-11-26T15:44:26.720Z,6.30
2022-11-26T15:49:40.261Z,6.20
2022-11-26T15:55:11.928Z,6.10
2022-11-26T16:00:22.527Z,6.00
2022-11-26T16:05:38.785Z,5.90
2022-11-26T16:10:41.963Z,5.90
2022-11-26T16:16:16.950Z,5.80
2022-11-26T16:21:32.989Z,5.80
2022-11-26T16:27:00.992Z,5.80
2022-11-26T16:32:04.133Z,5.80
2022-11-26T16:37:30.039Z,5.80
2022-11-26T16:42:33.352Z,5.80
2022-11-26T16:47:49.923Z,5.70
2022-11-26T16:52:54.317Z,5.70
2022-11-26T16:58:01.327Z,5.70
2022-11-26T17:03:04.449Z,5.60
2022-11-26T17:08:12.029Z,5.60
2022-11-26T17:13:15.700Z,5.50
2022-11-26T17:18:25.260Z,5.50
2022-11-26T17:23:28.942Z,5.40
2022-11-26T17:28:31.889Z,5.40
2022-11-26T17:33:34.791Z,5.50
2022-11-26T17:38:37.851Z,5.60
2022-11-26T17:43:41.159Z,5.80
2022-11-26T17:48:44.687Z,6.00
2022-11-26T17:53:47.978Z,6.20
2022-11-26T17:58:51.344Z,6.30
2022-11-26T18:03:54.244Z,6.40
2022-11-26T18:08:57.156Z,6.40
2022-11-26T18:13:59.960Z,6.50
2022-11-26T18:19:02.803Z,6.50
2022-11-26T18:24:07.844Z,6.60
2022-11-26T18:29:11.890Z,6.60
2022-11-26T18:34:14.902Z,6.70
2022-11-26T18:39:17.938Z,6.70
2022-11-26T18:44:20.864Z,6.70
2022-11-26T18:49:24.380Z,6.70
2022-11-26T18:54:27.277Z,6.70
2022-11-26T18:59:30.318Z,6.70
2022-11-26T19:04:33.318Z,6.70
2022-11-26T19:09:37.990Z,6.60
2022-11-26T19:14:41.113Z,6.50
2022-11-26T19:19:44.063Z,6.40
2022-11-26T19:24:48.558Z,6.40
2022-11-26T19:29:51.576Z,6.30
2022-11-26T19:34:54.716Z,6.30
2022-11-26T19:39:57.627Z,6.30
2022-11-26T19:45:00.525Z,6.30
2022-11-26T19:50:03.680Z,6.30
2022-11-26T19:55:07.006Z,6.30
2022-11-26T20:00:10.867Z,6.20
2022-11-26T20:05:13.920Z,6.20
2022-11-26T20:10:16.864Z,6.20
2022-11-26T20:15:19.679Z,6.20
2022-11-26T20:20:22.717Z,6.20
2022-11-26T20:25:25.599Z,6.20
2022-11-26T20:30:29.259Z,6.10
2022-11-26T20:35:32.212Z,6.10
2022-11-26T20:40:35.351Z,6.10
2022-11-26T20:45:38.787Z,6.10
2022-11-26T20:50:41.777Z,6.10
2022-11-26T20:55:54.149Z,6.10
2022-11-26T21:00:57.904Z,6.10
2022-11-26T21:06:04.139Z,6.10
2022-11-26T21:11:08.214Z,6.10
2022-11-26T21:16:16.570Z,6.00
2022-11-26T21:21:21.249Z,6.00
2022-11-26T21:26:26.019Z,6.00
2022-11-26T21:31:31.206Z,5.90
2022-11-26T21:36:36.167Z,5.90
2022-11-26T21:41:39.036Z,5.90
2022-11-26T21:46:42.052Z,5.90
2022-11-26T21:51:45.029Z,5.80
2022-11-26T21:56:48.068Z,5.90
2022-11-26T22:01:51.270Z,5.80
2022-11-26T22:06:54.235Z,5.80
2022-11-26T22:11:57.225Z,5.80
2022-11-26T22:16:59.953Z,5.80
2022-11-26T22:22:02.804Z,5.90
2022-11-26T22:27:05.689Z,5.80
2022-11-26T22:32:08.591Z,5.80
2022-11-26T22:37:11.497Z,5.80
2022-11-26T22:42:14.497Z,5.80
2022-11-26T22:47:17.352Z,5.80
2022-11-26T22:52:20.789Z,5.80
2022-11-26T22:57:25.548Z,5.80
2022-11-26T23:02:29.418Z,5.80
2022-11-26T23:07:32.807Z,5.80
2022-11-26T23:12:35.700Z,5.80
2022-11-26T23:17:38.534Z,5.80
2022-11-26T23:22:41.433Z,5.70
2022-11-26T23:27:44.910Z,5.70
2022-11-26T23:32:48.131Z,5.70
2022-11-26T23:37:51.084Z,5.60
2022-11-26T23:42:54.027Z,5.60
2022-11-26T23:47:56.934Z,5.60
2022-11-26T23:52:59.798Z,5.60
2022-11-26T23:58:02.728Z,5.60
